Time;durP1;ratioP1;P1;durP2;ratioP2;P2;SDS_P1;SDS_P2;PMS_P1;PMS_P2;Temp;Humidity;BMP_temperature;BMP_pressure;BME280_temperature;BME280_humidity;BME280_pressure;Samples;Min_cycle;Max_cycle;Signal;HPM_P1;HPM_P2
2022/06/15 00:00:19;;;;;;;5.55;1.35;;;;;;;23.52;36.44;101590.03;4977979;28;20050;-68
2022/06/15 00:02:45;;;;;;;2.45;0.98;;;;;;;23.44;35.67;101588.28;4977782;28;20037;-68
2022/06/15 00:05:10;;;;;;;2.30;1.20;;;;;;;23.38;36.48;101586.31;4973531;28;20035;-68
2022/06/15 00:07:36;;;;;;;1.20;0.93;;;;;;;23.30;35.79;101580.94;4957990;29;20035;-68
2022/06/15 00:10:01;;;;;;;1.92;1.08;;;;;;;23.23;35.86;101593.66;4958087;29;20511;-68
2022/06/15 00:12:26;;;;;;;4.60;1.33;;;;;;;23.15;36.37;101582.84;4940962;29;20094;-68
2022/06/15 00:14:52;;;;;;;2.10;1.35;;;;;;;23.08;36.56;101582.78;4958214;29;20122;-70
2022/06/15 00:17:17;;;;;;;1.60;1.02;;;;;;;23.03;36.96;101587.13;4958072;29;20061;-68
2022/06/15 00:19:42;;;;;;;5.72;1.00;;;;;;;22.98;36.26;101573.19;4958353;29;20477;-69
2022/06/15 00:22:11;;;;;;;7.55;1.27;;;;;;;22.95;37.04;101576.28;4958051;29;20037;-68
2022/06/15 00:24:37;;;;;;;2.53;1.48;;;;;;;22.90;37.49;101573.28;4957983;29;20035;-68
2022/06/15 00:27:03;;;;;;;4.50;1.25;;;;;;;22.84;37.00;101574.91;4957963;29;20035;-68
2022/06/15 00:29:30;;;;;;;1.92;1.30;;;;;;;22.80;37.41;101572.75;4958111;29;20039;-68
2022/06/15 00:31:55;;;;;;;3.67;1.20;;;;;;;22.75;37.14;101570.59;4957833;29;20031;-68
2022/06/15 00:34:21;;;;;;;5.07;1.48;;;;;;;22.70;37.36;101573.03;4957803;29;20041;-68
2022/06/15 00:36:46;;;;;;;5.38;1.52;;;;;;;22.66;36.81;101571.75;4957675;29;20050;-68
2022/06/15 00:39:11;;;;;;;6.43;1.38;;;;;;;22.60;37.07;101565.13;4940426;29;20035;-68
2022/06/15 00:41:37;;;;;;;2.78;1.52;;;;;;;22.57;37.87;101561.91;4957658;29;20074;-68
2022/06/15 00:44:24;;;;;;;3.45;1.33;;;;;;;22.52;37.18;101567.94;4957696;29;20027;-69
2022/06/15 00:46:52;;;;;;;2.95;1.30;;;;;;;22.48;37.15;101563.88;4957527;29;20030;-68
2022/06/15 00:49:21;;;;;;;2.42;1.20;;;;;;;22.45;37.48;101558.81;4956432;29;20031;-68
2022/06/15 00:51:50;;;;;;;2.83;1.30;;;;;;;22.40;37.46;101558.53;4956373;29;20119;-68
2022/06/15 00:54:16;;;;;;;4.43;1.10;;;;;;;22.35;38.04;101546.47;4956320;28;20044;-68
2022/06/15 00:56:41;;;;;;;6.00;1.60;;;;;;;22.32;38.19;101561.34;4957226;29;20600;-68
2022/06/15 00:59:15;;;;;;;5.07;1.52;;;;;;;22.25;38.29;101562.28;4956200;29;20492;-68
2022/06/15 01:01:41;;;;;;;3.50;1.20;;;;;;;22.20;37.91;101559.25;4957338;29;20085;-68
2022/06/15 01:04:06;;;;;;;3.60;1.58;;;;;;;22.16;38.46;101561.53;4957341;29;20412;-68
2022/06/15 01:06:43;;;;;;;4.40;1.10;;;;;;;22.12;38.63;101554.75;4939687;29;20066;-69
2022/06/15 01:09:09;;;;;;;2.78;1.00;;;;;;;22.08;38.98;101552.59;4957182;29;20034;-68
2022/06/15 01:11:34;;;;;;;3.22;1.33;;;;;;;22.04;39.09;101560.28;4957410;29;20373;-68
2022/06/15 01:14:17;;;;;;;3.97;1.50;;;;;;;21.98;39.22;101555.56;4957219;29;20110;-68
2022/06/15 01:16:52;;;;;;;6.85;1.33;;;;;;;21.94;38.84;101554.25;4939821;29;20047;-67
2022/06/15 01:19:36;;;;;;;1.90;1.52;;;;;;;21.86;39.44;101551.59;4957016;29;20489;-68
2022/06/15 01:22:12;;;;;;;2.10;1.38;;;;;;;21.80;39.07;101544.94;4939851;29;20528;-69
2022/06/15 01:24:52;;;;;;;3.55;1.60;;;;;;;21.77;39.23;101553.53;4956895;29;20477;-68
2022/06/15 01:27:31;;;;;;;2.97;1.48;;;;;;;21.71;39.11;101547.94;4956851;29;20361;-68
2022/06/15 01:30:15;;;;;;;2.22;1.15;;;;;;;21.68;39.44;101548.31;4956884;29;20049;-68
2022/06/15 01:33:05;;;;;;;1.67;1.05;;;;;;;21.64;39.31;101553.28;4956812;29;20031;-68
2022/06/15 01:35:45;;;;;;;4.05;1.35;;;;;;;21.60;39.81;101551.13;4940212;29;20027;-68
2022/06/15 01:38:22;;;;;;;4.88;2.25;;;;;;;21.56;39.84;101549.78;4956670;29;20031;-68
2022/06/15 01:41:00;;;;;;;2.17;1.30;;;;;;;21.53;39.65;101547.41;4972348;28;20031;-69
2022/06/15 01:43:29;;;;;;;3.05;1.48;;;;;;;21.51;39.72;101546.75;4973100;28;20061;-68
2022/06/15 01:45:56;;;;;;;6.30;1.50;;;;;;;21.50;39.57;101547.81;4958503;28;20018;-69
2022/06/15 01:48:22;;;;;;;2.45;1.83;;;;;;;21.46;39.65;101542.72;4958523;28;20042;-68
2022/06/15 01:50:51;;;;;;;1.65;1.02;;;;;;;21.44;40.04;101547.47;4958536;28;20106;-68
2022/06/15 01:53:20;;;;;;;7.18;2.00;;;;;;;21.41;40.16;101542.38;4975617;28;20022;-68
2022/06/15 01:55:49;;;;;;;5.32;1.50;;;;;;;21.39;39.77;101549.91;4975513;28;20047;-68
2022/06/15 01:58:17;;;;;;;3.42;1.35;;;;;;;21.38;39.61;101537.28;4975603;28;20101;-68
2022/06/15 02:00:46;;;;;;;1.63;1.42;;;;;;;21.37;39.93;101545.66;4958627;28;20057;-67
2022/06/15 02:03:25;;;;;;;2.90;1.70;;;;;;;21.35;40.12;101548.59;4958270;28;20026;-68
2022/06/15 02:06:01;;;;;;;4.97;1.42;;;;;;;21.32;39.98;101532.59;4958244;28;20026;-69
2022/06/15 02:08:35;;;;;;;4.15;1.30;;;;;;;21.30;40.07;101534.63;4975366;28;20026;-68
2022/06/15 02:11:08;;;;;;;5.28;1.40;;;;;;;21.28;40.29;101525.81;4975369;28;20023;-68
2022/06/15 02:13:48;;;;;;;3.55;1.40;;;;;;;21.24;40.02;101513.59;4958184;28;20117;-68
2022/06/15 02:16:21;;;;;;;2.88;1.90;;;;;;;21.20;40.61;101527.75;4957696;28;20042;-68
2022/06/15 02:18:47;;;;;;;4.03;1.23;;;;;;;21.17;40.31;101531.69;4975092;28;20023;-68
2022/06/15 02:21:15;;;;;;;3.42;1.90;;;;;;;21.15;40.01;101525.56;4957803;28;20022;-67
2022/06/15 02:23:42;;;;;;;4.80;1.67;;;;;;;21.13;40.67;101516.72;4975437;28;20061;-68
2022/06/15 02:26:08;;;;;;;3.35;1.15;;;;;;;21.12;40.08;101527.78;4975089;28;20026;-68
2022/06/15 02:28:37;;;;;;;2.97;1.45;;;;;;;21.09;40.38;101525.44;4975126;28;20035;-68
2022/06/15 02:31:02;;;;;;;4.57;1.80;;;;;;;21.08;40.20;101518.31;4957781;28;20023;-69
2022/06/15 02:33:31;;;;;;;3.70;1.30;;;;;;;21.06;40.73;101515.72;4974943;28;20057;-68
2022/06/15 02:35:58;;;;;;;4.55;1.42;;;;;;;21.05;40.96;101515.91;4957586;28;20039;-68
2022/06/15 02:38:24;;;;;;;5.68;2.10;;;;;;;21.02;40.43;101514.38;4974938;28;20178;-69
2022/06/15 02:40:49;;;;;;;2.50;1.40;;;;;;;21.00;40.87;101510.97;4974979;28;20027;-68
2022/06/15 02:43:19;;;;;;;3.78;1.38;;;;;;;20.98;40.72;101506.75;4975129;28;20051;-68
2022/06/15 02:45:47;;;;;;;6.50;2.40;;;;;;;20.96;40.89;101509.66;4957358;28;20033;-67
2022/06/15 02:48:12;;;;;;;3.08;1.55;;;;;;;20.93;40.69;101515.47;4957925;28;20033;-69
2022/06/15 02:50:47;;;;;;;6.38;2.15;;;;;;;20.87;41.05;101510.72;4957554;28;20030;-68
2022/06/15 02:53:15;;;;;;;2.67;1.60;;;;;;;20.88;40.70;101517.88;4957413;28;20019;-68
2022/06/15 02:55:42;;;;;;;2.70;2.08;;;;;;;20.86;41.26;101518.03;4957198;28;20047;-68
2022/06/15 02:58:22;;;;;;;6.75;2.60;;;;;;;20.83;41.13;101514.81;4974946;28;20043;-68
2022/06/15 03:00:47;;;;;;;5.93;1.92;;;;;;;20.80;41.18;101510.59;4974593;28;20022;-69
2022/06/15 03:03:13;;;;;;;7.85;2.55;;;;;;;20.78;40.78;101511.78;4974525;28;20042;-68
2022/06/15 03:05:38;;;;;;;8.25;2.00;;;;;;;20.76;41.40;101508.41;4974629;28;20378;-68
2022/06/15 03:08:04;;;;;;;7.07;2.13;;;;;;;20.75;41.33;101513.00;4974353;28;20054;-68
2022/06/15 03:10:29;;;;;;;8.07;1.85;;;;;;;20.75;41.04;101520.31;4974469;28;20230;-68
2022/06/15 03:12:55;;;;;;;7.28;2.03;;;;;;;20.72;41.11;101513.34;4957120;28;20111;-68
2022/06/15 03:15:20;;;;;;;3.65;1.85;;;;;;;20.72;41.09;101512.50;4974235;28;20026;-67
2022/06/15 03:17:45;;;;;;;3.97;2.33;;;;;;;20.70;41.50;101511.84;4974308;28;20493;-68
2022/06/15 03:20:11;;;;;;;4.70;1.55;;;;;;;20.69;41.83;101519.16;4974514;28;20031;-68
2022/06/15 03:22:37;;;;;;;4.20;2.00;;;;;;;20.67;41.51;101521.22;4974394;28;20031;-68
2022/06/15 03:25:03;;;;;;;4.13;2.22;;;;;;;20.66;41.25;101522.22;4957143;28;20507;-68
2022/06/15 03:27:28;;;;;;;6.35;2.05;;;;;;;20.65;41.67;101526.00;4941073;28;20034;-68
2022/06/15 03:29:54;;;;;;;4.28;2.03;;;;;;;20.63;41.99;101519.03;4977995;28;20034;-68
2022/06/15 03:32:19;;;;;;;4.38;2.00;;;;;;;20.63;41.81;101522.59;4978280;28;20037;-68
2022/06/15 03:34:45;;;;;;;7.15;2.13;;;;;;;20.62;41.94;101523.63;4960838;28;20086;-68
2022/06/15 03:37:11;;;;;;;3.17;1.83;;;;;;;20.61;41.62;101526.50;4978206;28;20480;-68
2022/06/15 03:39:36;;;;;;;4.53;1.60;;;;;;;20.62;41.83;101533.66;4976181;28;20544;-68
2022/06/15 03:42:19;;;;;;;6.03;2.50;;;;;;;20.63;41.98;101524.50;4977993;28;20035;-68
2022/06/15 03:44:45;;;;;;;8.55;2.13;;;;;;;20.63;41.68;101529.94;4958816;29;20033;-68
2022/06/15 03:47:17;;;;;;;4.32;2.60;;;;;;;20.60;41.90;101524.84;4958794;29;20039;-69
2022/06/15 03:49:51;;;;;;;3.92;1.77;;;;;;;20.58;41.92;101527.72;4942367;29;20532;-68
2022/06/15 03:52:18;;;;;;;6.63;1.98;;;;;;;20.55;42.26;101527.22;4954422;28;20038;-68
2022/06/15 03:54:44;;;;;;;2.97;2.10;;;;;;;20.53;41.88;101529.28;4977957;28;20392;-68
2022/06/15 03:57:11;;;;;;;4.07;2.60;;;;;;;20.55;42.14;101535.38;4977646;28;20038;-68
2022/06/15 03:59:36;;;;;;;6.47;1.92;;;;;;;20.56;41.85;101534.38;4977761;28;20058;-68
2022/06/15 04:02:02;;;;;;;5.13;2.10;;;;;;;20.56;42.34;101524.34;4977712;28;20170;-68
2022/06/15 04:04:27;;;;;;;11.75;2.20;;;;;;;20.57;42.69;101525.19;4960422;28;20041;-67
2022/06/15 04:06:53;;;;;;;3.97;2.33;;;;;;;20.60;42.66;101530.28;4977489;28;20102;-68
2022/06/15 04:09:21;;;;;;;3.13;2.10;;;;;;;20.61;42.28;101526.50;4977579;28;20037;-68
2022/06/15 04:12:02;;;;;;;5.55;2.33;;;;;;;20.64;42.83;101537.06;4977780;28;20110;-68
2022/06/15 04:14:32;;;;;;;4.70;2.55;;;;;;;20.67;42.89;101531.25;4962293;28;20485;-68
2022/06/15 04:16:57;;;;;;;7.50;2.47;;;;;;;20.69;42.68;101530.06;4960139;28;20038;-68
2022/06/15 04:19:26;;;;;;;4.00;2.13;;;;;;;20.75;42.63;101537.50;4960246;28;20022;-68
2022/06/15 04:21:52;;;;;;;6.57;2.80;;;;;;;20.81;42.85;101539.53;4977233;28;20038;-68
2022/06/15 04:24:18;;;;;;;5.38;2.90;;;;;;;20.88;42.26;101532.31;4959938;28;20098;-69
2022/06/15 04:26:45;;;;;;;5.68;2.50;;;;;;;21.00;42.66;101538.22;4960039;28;20027;-68
2022/06/15 04:29:10;;;;;;;7.90;2.55;;;;;;;21.11;42.16;101535.13;4977259;28;20057;-68
2022/06/15 04:31:38;;;;;;;6.85;3.50;;;;;;;21.26;42.77;101537.91;4977359;28;20066;-68
2022/06/15 04:34:04;;;;;;;8.90;3.25;;;;;;;21.41;42.64;101536.94;4977169;28;20081;-68
2022/06/15 04:36:29;;;;;;;4.63;2.97;;;;;;;21.54;42.84;101536.34;4959828;28;20085;-68
2022/06/15 04:38:55;;;;;;;7.60;3.10;;;;;;;21.71;42.77;101537.03;4977001;28;20396;-68
2022/06/15 04:41:20;;;;;;;3.78;2.72;;;;;;;21.83;42.11;101535.59;4976133;28;20030;-69
2022/06/15 04:43:45;;;;;;;6.47;3.13;;;;;;;21.99;42.43;101540.91;4959681;28;20046;-68
2022/06/15 04:46:11;;;;;;;5.57;2.78;;;;;;;22.13;42.61;101536.50;4976982;28;20033;-68
2022/06/15 04:48:37;;;;;;;5.53;2.80;;;;;;;22.27;41.68;101533.78;4976772;28;20040;-68
2022/06/15 04:51:11;;;;;;;4.65;2.50;;;;;;;22.43;42.35;101539.03;4976818;28;20038;-68
2022/06/15 04:53:36;;;;;;;4.75;2.75;;;;;;;22.58;41.31;101541.75;4976838;28;20446;-68
2022/06/15 04:56:01;;;;;;;8.45;3.15;;;;;;;22.74;40.98;101540.72;4976516;28;20126;-69
2022/06/15 04:58:27;;;;;;;9.60;3.00;;;;;;;22.86;40.92;101537.34;4959386;28;20490;-68
2022/06/15 05:00:52;;;;;;;4.90;3.20;;;;;;;22.97;40.74;101531.38;4976260;28;20031;-68
2022/06/15 05:03:18;;;;;;;8.45;3.08;;;;;;;23.10;40.57;101547.06;4959203;28;20500;-68
2022/06/15 05:05:43;;;;;;;9.05;4.07;;;;;;;23.23;40.85;101536.25;4976784;28;20384;-68
2022/06/15 05:08:08;;;;;;;3.17;2.60;;;;;;;23.35;40.26;101537.44;4976486;28;20101;-68
2022/06/15 05:10:34;;;;;;;9.90;2.60;;;;;;;23.47;40.09;101535.91;4959160;28;20027;-67
2022/06/15 05:12:59;;;;;;;13.43;2.88;;;;;;;23.62;40.00;101536.66;4976378;28;20033;-68
2022/06/15 05:15:25;;;;;;;23.73;4.25;;;;;;;23.75;40.18;101536.81;4976254;28;20031;-68
2022/06/15 05:17:51;;;;;;;5.15;2.53;;;;;;;23.85;40.25;101541.91;4959284;28;20065;-68
2022/06/15 05:20:16;;;;;;;9.80;3.47;;;;;;;23.98;39.96;101543.94;4976373;28;20150;-68
2022/06/15 05:22:42;;;;;;;10.38;4.03;;;;;;;24.10;40.23;101545.94;4976821;28;20093;-68
2022/06/15 05:25:09;;;;;;;5.55;2.53;;;;;;;24.24;39.21;101542.22;4976361;28;20026;-68
2022/06/15 05:27:37;;;;;;;5.93;3.28;;;;;;;24.38;39.53;101540.41;4976314;28;20456;-67
2022/06/15 05:30:04;;;;;;;9.55;3.35;;;;;;;24.52;38.85;101546.81;4976703;28;20027;-68
2022/06/15 05:32:30;;;;;;;9.48;2.92;;;;;;;24.65;38.88;101538.69;4975219;28;20092;-68
2022/06/15 05:34:55;;;;;;;6.35;2.92;;;;;;;24.80;39.13;101539.38;4958817;28;20419;-68
2022/06/15 05:37:21;;;;;;;6.13;3.10;;;;;;;24.96;38.40;101535.47;4975823;28;20472;-68
2022/06/15 05:39:48;;;;;;;6.05;2.72;;;;;;;25.10;38.64;101531.72;4958737;28;20053;-68
2022/06/15 05:42:13;;;;;;;8.75;3.00;;;;;;;25.25;38.14;101541.44;4975850;28;20089;-68
2022/06/15 05:47:05;;;;;;;6.13;2.67;;;;;;;25.57;38.27;101528.00;4976138;28;20031;-68
2022/06/15 05:49:31;;;;;;;8.75;3.80;;;;;;;25.72;37.68;101543.22;4975802;28;20034;-68
2022/06/15 05:51:56;;;;;;;10.93;3.33;;;;;;;25.89;37.64;101539.00;4974910;28;20483;-68
2022/06/15 05:54:21;;;;;;;8.77;3.53;;;;;;;26.03;37.58;101537.91;4974560;28;20034;-68
2022/06/15 05:56:47;;;;;;;8.07;2.78;;;;;;;26.19;37.81;101539.41;4975353;28;20121;-68
2022/06/15 05:59:12;;;;;;;9.57;3.15;;;;;;;26.35;37.18;101533.47;4975605;28;20042;-68
2022/06/15 06:01:38;;;;;;;7.45;3.35;;;;;;;26.50;37.21;101533.19;4975516;28;20106;-69
2022/06/15 06:04:04;;;;;;;6.05;2.72;;;;;;;26.63;37.17;101530.41;4975814;28;20109;-68
2022/06/15 06:06:30;;;;;;;7.05;2.90;;;;;;;26.78;36.45;101531.00;4974387;28;20031;-67
2022/06/15 06:08:56;;;;;;;7.45;3.25;;;;;;;26.94;37.01;101533.25;4975446;28;20042;-68
2022/06/15 06:11:22;;;;;;;16.08;3.55;;;;;;;27.11;36.19;101536.31;4975246;28;20054;-68
2022/06/15 06:13:48;;;;;;;8.55;3.40;;;;;;;27.25;36.60;101537.13;4975324;28;20073;-68
2022/06/15 06:16:14;;;;;;;7.03;3.13;;;;;;;27.39;36.07;101534.03;4958028;28;20503;-69
2022/06/15 06:18:39;;;;;;;7.80;3.17;;;;;;;27.53;35.94;101529.31;4958111;28;20066;-68
2022/06/15 06:21:05;;;;;;;7.97;3.13;;;;;;;27.65;35.64;101531.13;4958046;28;20037;-68
2022/06/15 06:23:32;;;;;;;8.90;3.90;;;;;;;27.81;36.19;101539.88;4974152;28;20027;-68
2022/06/15 06:25:57;;;;;;;8.75;2.97;;;;;;;27.92;35.91;101539.19;4975050;28;20388;-68
2022/06/15 06:28:28;;;;;;;6.90;3.28;;;;;;;28.05;35.61;101533.56;4957863;28;20038;-69
2022/06/15 06:30:57;;;;;;;12.52;3.13;;;;;;;28.17;35.74;101540.84;4975072;28;20097;-68
2022/06/15 06:33:23;;;;;;;8.85;3.20;;;;;;;28.29;34.50;101544.53;4975119;28;20066;-68
2022/06/15 06:35:48;;;;;;;9.38;4.15;;;;;;;28.44;35.00;101540.56;4975008;28;20035;-68
2022/06/15 06:38:14;;;;;;;10.25;3.80;;;;;;;28.58;34.30;101542.13;4957676;28;20400;-68
2022/06/15 06:40:40;;;;;;;10.50;3.90;;;;;;;28.70;33.97;101540.31;4974152;28;20132;-68
2022/06/15 06:43:06;;;;;;;13.73;3.80;;;;;;;28.83;35.05;101537.38;4974765;28;20527;-68
2022/06/15 06:45:31;;;;;;;7.45;3.25;;;;;;;28.95;34.71;101549.28;4975153;28;20042;-69
2022/06/15 06:47:56;;;;;;;7.28;3.13;;;;;;;29.09;34.08;101533.41;4974937;28;20027;-68
2022/06/15 06:50:23;;;;;;;9.30;3.88;;;;;;;29.18;33.92;101532.84;4974861;28;20027;-68
2022/06/15 06:52:49;;;;;;;6.32;3.05;;;;;;;29.33;34.23;101541.59;4974938;28;20042;-68
2022/06/15 06:55:15;;;;;;;10.75;3.88;;;;;;;29.49;33.33;101540.06;4975026;28;20476;-68
2022/06/15 06:57:40;;;;;;;10.13;3.38;;;;;;;29.69;33.82;101548.03;4973323;28;20058;-68
2022/06/15 07:00:07;;;;;;;8.65;3.45;;;;;;;29.88;33.29;101552.41;4974607;28;20035;-69
2022/06/15 07:02:32;;;;;;;8.98;3.30;;;;;;;30.05;32.96;101550.63;4957256;28;20588;-68
2022/06/15 07:04:57;;;;;;;5.53;2.75;;;;;;;30.24;33.30;101546.66;4974440;28;20034;-67
2022/06/15 07:07:23;;;;;;;8.93;3.97;;;;;;;30.43;33.00;101548.22;4974652;28;20377;-68
2022/06/15 07:09:48;;;;;;;9.52;3.03;;;;;;;30.63;32.66;101545.06;4974433;28;20488;-68
2022/06/15 07:12:13;;;;;;;8.55;3.47;;;;;;;30.82;32.48;101548.53;4957273;28;20034;-68
2022/06/15 07:14:39;;;;;;;5.85;4.20;;;;;;;30.99;32.39;101553.03;4974432;28;20034;-69
2022/06/15 07:17:04;;;;;;;9.25;3.42;;;;;;;31.14;31.81;101556.13;4974365;28;20498;-68
2022/06/15 07:19:30;;;;;;;10.85;3.08;;;;;;;31.32;31.95;101554.25;4974439;28;20033;-67
2022/06/15 07:21:55;;;;;;;7.43;3.10;;;;;;;31.49;32.24;101558.75;4974490;28;20031;-68
2022/06/15 07:24:21;;;;;;;8.48;3.35;;;;;;;31.64;31.99;101550.72;4973620;28;20119;-68
2022/06/15 07:26:47;;;;;;;6.38;3.17;;;;;;;31.78;32.37;101550.38;4973939;28;20101;-68
2022/06/15 07:29:15;;;;;;;5.03;3.38;;;;;;;31.93;31.66;101542.31;4974233;28;20027;-68
2022/06/15 07:31:42;;;;;;;8.25;3.65;;;;;;;32.08;31.64;101551.72;4974388;28;20019;-67
2022/06/15 07:34:08;;;;;;;8.98;3.25;;;;;;;32.26;30.96;101547.84;4974364;28;20031;-68
2022/06/15 07:36:36;;;;;;;10.23;4.40;;;;;;;32.42;30.76;101552.53;4974321;28;20030;-69
2022/06/15 07:39:02;;;;;;;7.72;3.08;;;;;;;32.59;31.37;101546.94;4974189;28;20031;-68
2022/06/15 07:41:27;;;;;;;5.88;2.85;;;;;;;32.77;31.32;101550.28;4957223;28;20033;-69
2022/06/15 07:43:53;;;;;;;4.80;3.17;;;;;;;32.95;30.99;101551.00;4974431;28;20031;-69
2022/06/15 07:46:19;;;;;;;8.75;3.88;;;;;;;33.09;30.69;101553.16;4974142;28;20056;-68
2022/06/15 07:51:33;;;;;;;8.30;3.85;;;;;;;33.39;30.62;101558.22;4973212;28;20046;-69
2022/06/15 07:54:00;;;;;;;10.00;3.78;;;;;;;33.50;30.25;101551.66;4973964;28;20027;-69
2022/06/15 07:56:26;;;;;;;8.25;3.40;;;;;;;33.63;30.03;101548.47;4953722;29;20050;-68
2022/06/15 07:58:52;;;;;;;10.32;3.42;;;;;;;33.75;30.32;101549.13;4954921;29;20039;-69
2022/06/15 08:01:17;;;;;;;12.57;3.42;;;;;;;33.89;29.29;101558.69;4954883;28;20031;-68
2022/06/15 08:03:43;;;;;;;9.23;3.25;;;;;;;34.03;29.62;101559.09;4954842;28;20082;-69
2022/06/15 08:06:08;;;;;;;10.13;2.97;;;;;;;34.16;29.66;101552.25;4954777;29;20038;-68
2022/06/15 08:08:33;;;;;;;8.02;3.20;;;;;;;34.31;28.74;101555.16;4954731;29;20417;-68
2022/06/15 08:10:59;;;;;;;9.00;3.45;;;;;;;34.43;28.75;101564.94;4954912;29;20114;-68
2022/06/15 08:13:24;;;;;;;7.13;3.75;;;;;;;34.60;28.37;101564.78;4954709;29;20031;-69
2022/06/15 08:15:50;;;;;;;16.88;3.50;;;;;;;34.74;28.84;101565.97;4939102;29;20034;-69
2022/06/15 08:18:24;;;;;;;4.90;3.20;;;;;;;34.86;28.93;101562.97;4958274;28;20035;-69
2022/06/15 08:21:02;;;;;;;6.20;3.03;;;;;;;35.00;28.61;101558.56;4958138;28;20047;-69
2022/06/15 08:23:31;;;;;;;11.00;3.50;;;;;;;35.13;28.24;101566.44;4956813;29;20031;-69
2022/06/15 08:25:59;;;;;;;6.57;3.08;;;;;;;35.26;28.30;101562.28;4956781;29;20027;-69
2022/06/15 08:28:27;;;;;;;6.60;3.03;;;;;;;35.38;28.52;101568.44;4958096;28;20029;-69
2022/06/15 08:30:53;;;;;;;7.45;3.22;;;;;;;35.51;27.79;101565.13;4956903;29;20031;-69
2022/06/15 08:33:19;;;;;;;9.63;3.47;;;;;;;35.65;28.15;101560.72;4957968;28;20098;-69
2022/06/15 08:35:44;;;;;;;6.35;3.60;;;;;;;35.76;27.50;101555.97;4958253;28;20036;-68
2022/06/15 08:38:12;;;;;;;5.88;2.90;;;;;;;35.86;27.72;101555.97;4958037;28;20441;-69
2022/06/15 08:40:58;;;;;;;5.32;2.58;;;;;;;35.98;27.91;101554.56;4957942;28;20027;-69
2022/06/15 08:43:48;;;;;;;9.57;3.35;;;;;;;36.05;27.56;101543.97;4956695;29;20030;-69
2022/06/15 08:46:36;;;;;;;8.25;3.42;;;;;;;36.18;27.50;101548.97;4956564;29;20160;-69
2022/06/15 08:49:07;;;;;;;8.23;3.00;;;;;;;36.34;27.46;101552.59;4957812;28;20035;-69
2022/06/15 08:51:41;;;;;;;13.48;3.38;;;;;;;36.48;27.00;101550.88;4957738;29;20481;-68
2022/06/15 08:54:12;;;;;;;6.40;3.38;;;;;;;36.57;27.32;101551.16;4956634;28;20031;-69
2022/06/15 08:56:44;;;;;;;7.80;2.88;;;;;;;36.71;27.05;101546.63;4965295;28;20393;-69
2022/06/15 08:59:16;;;;;;;6.72;2.75;;;;;;;36.86;27.08;101554.09;4959523;28;20033;-69
2022/06/15 09:01:45;;;;;;;;;;;;;;;37.03;27.28;101549.00;4959864;28;20033;-69
2022/06/15 09:04:13;;;;;;;5.60;2.97;;;;;;;37.15;26.82;101549.50;4976889;28;19960;-69
2022/06/15 09:06:57;;;;;;;8.40;3.03;;;;;;;37.24;26.48;101556.97;4976589;28;20042;-69
2022/06/15 09:09:33;;;;;;;5.32;2.60;;;;;;;37.34;25.91;101551.34;4976555;28;20023;-69
2022/06/15 09:15:24;;;;;;;11.55;3.00;;;;;;;37.60;26.29;101551.19;4976543;28;20078;-69
2022/06/15 09:17:51;;;;;;;7.28;2.47;;;;;;;37.67;26.25;101543.28;4976526;28;20019;-69
2022/06/15 09:20:25;;;;;;;11.02;3.55;;;;;;;37.69;26.04;101539.06;4959134;28;20023;-69
2022/06/15 09:22:55;;;;;;;7.57;2.70;;;;;;;37.77;25.90;101540.41;4976724;28;20034;-69
2022/06/15 09:25:31;;;;;;;9.00;3.17;;;;;;;37.85;25.18;101534.19;4976392;28;20057;-70
2022/06/15 09:28:00;;;;;;;10.48;3.17;;;;;;;37.94;25.86;101537.22;4959087;28;20081;-69
2022/06/15 09:30:31;;;;;;;9.23;3.83;;;;;;;37.96;25.53;101535.78;4959455;28;20026;-69
2022/06/15 09:32:59;;;;;;;8.48;3.15;;;;;;;37.94;25.59;101526.03;4976800;28;20035;-69
2022/06/15 09:35:32;;;;;;;8.02;4.22;;;;;;;37.97;24.77;101525.44;4976326;28;20484;-69
2022/06/15 09:37:59;;;;;;;7.80;3.20;;;;;;;37.96;25.28;101530.19;4958906;28;20026;-69
2022/06/15 09:40:44;;;;;;;7.57;2.83;;;;;;;37.92;25.23;101523.50;4958900;28;20034;-69
2022/06/15 09:43:22;;;;;;;5.35;2.70;;;;;;;37.90;25.69;101520.16;4958624;28;20027;-69
2022/06/15 09:46:43;;;;;;;6.40;2.72;;;;;;;38.01;25.52;101526.50;4976324;28;20034;-69
2022/06/15 09:49:35;;;;;;;6.82;2.55;;;;;;;38.18;25.51;101527.72;4923724;28;20039;-69
2022/06/15 09:52:15;;;;;;;5.65;2.58;;;;;;;38.33;24.58;101527.56;4975869;28;20118;-69
2022/06/15 09:55:08;;;;;;;6.15;2.63;;;;;;;38.49;24.55;101535.81;4975784;28;20057;-69
2022/06/15 09:57:39;;;;;;;8.82;2.83;;;;;;;38.67;24.71;101523.81;4954460;28;20412;-70
2022/06/15 10:00:09;;;;;;;7.03;3.67;;;;;;;38.86;23.65;101528.31;4958389;28;20070;-70
2022/06/15 10:02:38;;;;;;;4.05;2.30;;;;;;;39.12;23.98;101531.63;4975558;28;20022;-70
2022/06/15 10:05:06;;;;;;;7.30;2.95;;;;;;;39.46;24.01;101522.97;4958429;28;20567;-69
2022/06/15 10:07:38;;;;;;;1999.90;999.90;;;;;;;39.96;23.76;101521.31;4958361;28;20070;-69
2022/06/15 10:10:16;;;;;;;1999.90;999.90;;;;;;;40.61;23.34;101519.22;4958331;28;20034;-69
2022/06/15 10:13:00;;;;;;;30.70;28.77;;;;;;;41.39;22.63;101513.25;4975414;28;20031;-70
2022/06/15 10:15:29;;;;;;;10.85;3.97;;;;;;;42.56;21.48;101520.28;4974870;28;20026;-69
2022/06/15 10:17:57;;;;;;;3.42;2.42;;;;;;;43.34;20.39;101518.44;4975676;28;20034;-69
2022/06/15 10:20:35;;;;;;;6.82;2.42;;;;;;;43.24;20.45;101516.78;4975380;28;20038;-70
2022/06/15 10:23:04;;;;;;;4.90;2.70;;;;;;;42.68;21.12;101517.66;4957889;28;20109;-70
2022/06/15 10:25:34;;;;;;;6.60;3.05;;;;;;;42.22;21.37;101520.13;4957932;28;20023;-70
2022/06/15 10:28:26;;;;;;;10.82;7.30;;;;;;;41.88;21.64;101514.28;4957922;28;20042;-69
2022/06/15 10:30:58;;;;;;;5.50;3.00;;;;;;;41.68;21.69;101510.00;4972696;28;20050;-69
2022/06/15 10:33:24;;;;;;;7.88;3.33;;;;;;;41.58;21.45;101513.91;4975482;28;20030;-69
2022/06/15 10:35:57;;;;;;;4.15;2.70;;;;;;;41.56;21.52;101519.03;4975135;28;20510;-69
2022/06/15 10:38:23;;;;;;;5.25;2.42;;;;;;;41.60;21.55;101525.66;4957669;28;20056;-69
2022/06/15 10:40:58;;;;;;;3.35;2.53;;;;;;;41.73;21.33;101513.53;4957865;28;20432;-69
2022/06/15 10:43:28;;;;;;;6.60;2.95;;;;;;;41.92;21.24;101509.66;4957681;28;20476;-70
2022/06/15 10:46:05;;;;;;;8.07;3.78;;;;;;;42.08;20.88;101516.53;4957821;28;20027;-69
2022/06/15 10:48:42;;;;;;;10.52;3.90;;;;;;;42.18;21.24;101510.66;4957614;28;20031;-69
2022/06/15 10:51:11;;;;;;;8.00;4.32;;;;;;;42.36;20.98;101501.09;4957760;28;20050;-69
2022/06/15 10:53:45;;;;;;;5.20;2.70;;;;;;;42.56;20.55;101500.56;4958108;28;20535;-70
2022/06/15 11:02:37;;;;;;;8.30;2.67;;;;;;;43.15;20.41;101501.00;4975361;28;20046;-69
2022/06/15 11:05:23;;;;;;;7.15;1.90;;;;;;;43.41;20.35;101491.41;4974959;28;20373;-69
2022/06/15 11:08:04;;;;;;;6.40;1.90;;;;;;;43.60;20.33;101487.38;4957065;28;20034;-69
2022/06/15 11:10:39;;;;;;;5.32;2.17;;;;;;;43.79;19.58;101499.16;4957282;28;20105;-70
2022/06/15 11:13:17;;;;;;;6.35;2.28;;;;;;;43.93;20.08;101496.94;4957460;28;20106;-70
2022/06/15 11:18:44;;;;;;;4.72;2.00;;;;;;;44.14;19.56;101492.25;4974921;28;20038;-70
2022/06/15 11:21:14;;;;;;;8.35;2.63;;;;;;;44.24;19.38;101485.38;4957974;28;20469;-69
2022/06/15 11:23:57;;;;;;;6.05;2.40;;;;;;;44.31;19.44;101468.72;4957611;28;20062;-69
2022/06/15 11:29:38;;;;;;;6.05;2.00;;;;;;;44.54;19.32;101464.44;4960051;28;20086;-70
2022/06/15 11:32:24;;;;;;;3.50;1.90;;;;;;;44.58;19.94;101465.44;4974482;28;20110;-69
2022/06/15 11:34:57;;;;;;;6.35;2.00;;;;;;;44.55;19.83;101463.28;4974650;28;20027;-69
2022/06/15 11:37:29;;;;;;;4.38;2.40;;;;;;;44.57;19.28;101458.09;4957484;28;20070;-70
2022/06/15 11:40:02;;;;;;;5.72;2.33;;;;;;;44.51;19.66;101454.66;4974639;28;20031;-69
2022/06/15 11:42:28;;;;;;;5.82;2.38;;;;;;;44.42;19.60;101458.69;4957503;28;20099;-69
2022/06/15 11:44:53;;;;;;;3.72;2.03;;;;;;;44.33;19.34;101457.91;4974419;28;20035;-70
2022/06/15 11:47:37;;;;;;;4.38;1.92;;;;;;;44.17;18.86;101460.47;4957216;28;20059;-69
2022/06/15 11:50:21;;;;;;;5.40;1.80;;;;;;;44.01;19.27;101465.00;4959370;28;20026;-69
2022/06/15 11:52:52;;;;;;;5.65;2.70;;;;;;;43.82;19.54;101456.09;4978174;28;20030;-70
2022/06/15 11:55:20;;;;;;;2.63;1.42;;;;;;;43.72;19.16;101451.63;4978424;28;20101;-69